Glogow, Poland
Current Conditions -  °F | °C
As of 4:00 PM on Monday 22 Dec 2014 (Local Time) from EPZG Reporting Station
Overcast Overcast  
Wind Chill: 50°   Ceiling: 2300
Heat Index: 50°   Visibility: 6mi
Dew Point: 45°   Wind: 28mph
Humidity: 82%   Direction: 240°WSW
Pressure: 29.74"   Gusts: 39mph
Location:  51.67°N, 16.08°E
Report Text: EPZG 221400Z 24024G34KT 9999 FEW008 OVC023 10/07 Q1007
Loading
Personal Weather Stations






























Interactive Weather Map New forecast layout! Learn more

10-Day Weather Forecast

Advertisements
Track Severe Weather on mobile